sensor_id;sensor_type;location;lat;lon;timestamp;P1;durP1;ratioP1;P2;durP2;ratioP2
52942;SDS011;38809;53.300;6.614;2024-02-23T00:02:19;3.20;;;0.88;;
52942;SDS011;38809;53.300;6.614;2024-02-23T00:04:45;4.55;;;1.17;;
52942;SDS011;38809;53.300;6.614;2024-02-23T00:07:11;3.60;;;0.70;;
52942;SDS011;38809;53.300;6.614;2024-02-23T00:09:37;5.95;;;0.80;;
52942;SDS011;38809;53.300;6.614;2024-02-23T00:12:03;4.05;;;1.20;;
52942;SDS011;38809;53.300;6.614;2024-02-23T00:14:30;5.63;;;1.40;;
52942;SDS011;38809;53.300;6.614;2024-02-23T00:19:23;4.40;;;0.95;;
52942;SDS011;38809;53.300;6.614;2024-02-23T00:21:50;3.70;;;0.85;;
52942;SDS011;38809;53.300;6.614;2024-02-23T00:24:18;4.63;;;1.10;;
52942;SDS011;38809;53.300;6.614;2024-02-23T00:26:46;3.80;;;0.98;;
52942;SDS011;38809;53.300;6.614;2024-02-23T00:29:12;4.75;;;0.80;;
52942;SDS011;38809;53.300;6.614;2024-02-23T00:31:38;4.50;;;1.08;;
52942;SDS011;38809;53.300;6.614;2024-02-23T00:34:08;5.13;;;0.90;;
52942;SDS011;38809;53.300;6.614;2024-02-23T00:36:38;2.38;;;0.60;;
52942;SDS011;38809;53.300;6.614;2024-02-23T00:39:05;4.40;;;0.85;;
52942;SDS011;38809;53.300;6.614;2024-02-23T00:41:32;3.15;;;0.70;;
52942;SDS011;38809;53.300;6.614;2024-02-23T00:43:58;3.22;;;0.75;;
52942;SDS011;38809;53.300;6.614;2024-02-23T00:46:24;6.07;;;0.90;;
52942;SDS011;38809;53.300;6.614;2024-02-23T00:48:50;5.70;;;1.13;;
52942;SDS011;38809;53.300;6.614;2024-02-23T00:51:17;6.78;;;1.45;;
52942;SDS011;38809;53.300;6.614;2024-02-23T00:53:43;2.58;;;0.70;;
52942;SDS011;38809;53.300;6.614;2024-02-23T00:56:09;3.60;;;1.05;;
52942;SDS011;38809;53.300;6.614;2024-02-23T00:58:35;4.40;;;0.88;;
52942;SDS011;38809;53.300;6.614;2024-02-23T01:01:01;3.83;;;0.90;;
52942;SDS011;38809;53.300;6.614;2024-02-23T01:03:27;6.15;;;1.75;;
52942;SDS011;38809;53.300;6.614;2024-02-23T01:05:53;6.53;;;1.30;;
52942;SDS011;38809;53.300;6.614;2024-02-23T01:08:19;5.80;;;1.50;;
52942;SDS011;38809;53.300;6.614;2024-02-23T01:10:45;2.83;;;0.70;;
52942;SDS011;38809;53.300;6.614;2024-02-23T01:13:12;4.95;;;1.30;;
52942;SDS011;38809;53.300;6.614;2024-02-23T01:18:04;4.70;;;1.40;;
52942;SDS011;38809;53.300;6.614;2024-02-23T01:20:32;4.30;;;1.13;;
52942;SDS011;38809;53.300;6.614;2024-02-23T01:22:59;3.97;;;1.00;;
52942;SDS011;38809;53.300;6.614;2024-02-23T01:25:25;3.72;;;1.10;;
52942;SDS011;38809;53.300;6.614;2024-02-23T01:27:51;4.53;;;1.30;;
52942;SDS011;38809;53.300;6.614;2024-02-23T01:30:17;4.05;;;1.10;;
52942;SDS011;38809;53.300;6.614;2024-02-23T01:32:44;6.45;;;1.40;;
52942;SDS011;38809;53.300;6.614;2024-02-23T01:35:10;4.30;;;1.30;;
52942;SDS011;38809;53.300;6.614;2024-02-23T01:37:36;5.47;;;1.73;;
52942;SDS011;38809;53.300;6.614;2024-02-23T01:40:03;5.93;;;1.55;;
52942;SDS011;38809;53.300;6.614;2024-02-23T01:42:29;5.45;;;1.98;;
52942;SDS011;38809;53.300;6.614;2024-02-23T01:44:55;5.53;;;1.40;;
52942;SDS011;38809;53.300;6.614;2024-02-23T01:47:22;6.45;;;1.58;;
52942;SDS011;38809;53.300;6.614;2024-02-23T01:49:48;4.32;;;1.60;;
52942;SDS011;38809;53.300;6.614;2024-02-23T01:52:14;6.95;;;1.30;;
52942;SDS011;38809;53.300;6.614;2024-02-23T01:57:07;4.88;;;1.58;;
52942;SDS011;38809;53.300;6.614;2024-02-23T01:59:35;4.25;;;1.42;;
52942;SDS011;38809;53.300;6.614;2024-02-23T02:02:02;6.50;;;1.35;;
52942;SDS011;38809;53.300;6.614;2024-02-23T02:04:28;8.20;;;1.55;;
52942;SDS011;38809;53.300;6.614;2024-02-23T02:06:55;5.15;;;1.23;;
52942;SDS011;38809;53.300;6.614;2024-02-23T02:09:21;5.25;;;1.42;;
52942;SDS011;38809;53.300;6.614;2024-02-23T02:11:48;4.97;;;1.30;;
52942;SDS011;38809;53.300;6.614;2024-02-23T02:16:40;5.35;;;1.75;;
52942;SDS011;38809;53.300;6.614;2024-02-23T02:19:06;4.95;;;1.58;;
52942;SDS011;38809;53.300;6.614;2024-02-23T02:21:33;13.18;;;2.85;;
52942;SDS011;38809;53.300;6.614;2024-02-23T02:23:59;5.22;;;1.75;;
52942;SDS011;38809;53.300;6.614;2024-02-23T02:26:25;6.70;;;1.83;;
52942;SDS011;38809;53.300;6.614;2024-02-23T02:28:51;6.90;;;1.70;;
52942;SDS011;38809;53.300;6.614;2024-02-23T02:31:17;7.53;;;2.13;;
52942;SDS011;38809;53.300;6.614;2024-02-23T02:33:44;7.25;;;1.63;;
52942;SDS011;38809;53.300;6.614;2024-02-23T02:36:10;6.30;;;1.75;;
52942;SDS011;38809;53.300;6.614;2024-02-23T02:41:02;6.28;;;1.80;;
52942;SDS011;38809;53.300;6.614;2024-02-23T02:43:30;11.82;;;1.75;;
52942;SDS011;38809;53.300;6.614;2024-02-23T02:45:56;8.10;;;1.90;;
52942;SDS011;38809;53.300;6.614;2024-02-23T02:48:22;6.90;;;1.95;;
52942;SDS011;38809;53.300;6.614;2024-02-23T02:50:49;11.05;;;3.00;;
52942;SDS011;38809;53.300;6.614;2024-02-23T02:53:16;5.82;;;1.90;;
52942;SDS011;38809;53.300;6.614;2024-02-23T02:55:43;6.15;;;1.65;;
52942;SDS011;38809;53.300;6.614;2024-02-23T03:00:35;11.93;;;2.60;;
52942;SDS011;38809;53.300;6.614;2024-02-23T03:03:01;9.25;;;2.15;;
52942;SDS011;38809;53.300;6.614;2024-02-23T03:05:27;9.90;;;1.70;;
52942;SDS011;38809;53.300;6.614;2024-02-23T03:07:53;7.68;;;1.98;;
52942;SDS011;38809;53.300;6.614;2024-02-23T03:10:19;6.80;;;1.85;;
52942;SDS011;38809;53.300;6.614;2024-02-23T03:12:46;9.43;;;1.83;;
52942;SDS011;38809;53.300;6.614;2024-02-23T03:15:12;7.65;;;1.50;;
52942;SDS011;38809;53.300;6.614;2024-02-23T03:17:38;7.15;;;1.90;;
52942;SDS011;38809;53.300;6.614;2024-02-23T03:20:04;6.65;;;1.80;;
52942;SDS011;38809;53.300;6.614;2024-02-23T03:22:34;9.38;;;1.40;;
52942;SDS011;38809;53.300;6.614;2024-02-23T03:27:33;6.18;;;1.13;;
52942;SDS011;38809;53.300;6.614;2024-02-23T03:29:59;5.60;;;1.63;;
52942;SDS011;38809;53.300;6.614;2024-02-23T03:32:25;5.82;;;1.55;;
52942;SDS011;38809;53.300;6.614;2024-02-23T03:34:51;7.35;;;1.60;;
52942;SDS011;38809;53.300;6.614;2024-02-23T03:37:18;6.68;;;1.83;;
52942;SDS011;38809;53.300;6.614;2024-02-23T03:39:44;4.75;;;1.92;;
52942;SDS011;38809;53.300;6.614;2024-02-23T03:42:10;5.82;;;1.50;;
52942;SDS011;38809;53.300;6.614;2024-02-23T03:44:36;5.78;;;1.60;;
52942;SDS011;38809;53.300;6.614;2024-02-23T03:47:02;7.35;;;1.85;;
52942;SDS011;38809;53.300;6.614;2024-02-23T03:49:28;6.03;;;1.85;;
52942;SDS011;38809;53.300;6.614;2024-02-23T03:51:54;7.57;;;1.83;;
52942;SDS011;38809;53.300;6.614;2024-02-23T03:54:20;8.43;;;1.77;;
52942;SDS011;38809;53.300;6.614;2024-02-23T03:56:46;4.47;;;1.20;;
52942;SDS011;38809;53.300;6.614;2024-02-23T03:59:12;7.03;;;1.85;;
52942;SDS011;38809;53.300;6.614;2024-02-23T04:04:05;6.18;;;1.98;;
52942;SDS011;38809;53.300;6.614;2024-02-23T04:06:31;6.10;;;1.65;;
52942;SDS011;38809;53.300;6.614;2024-02-23T04:08:59;6.80;;;1.35;;
52942;SDS011;38809;53.300;6.614;2024-02-23T04:11:25;9.38;;;2.03;;
52942;SDS011;38809;53.300;6.614;2024-02-23T04:13:51;6.43;;;1.48;;
52942;SDS011;38809;53.300;6.614;2024-02-23T04:16:17;5.82;;;1.63;;
52942;SDS011;38809;53.300;6.614;2024-02-23T04:18:43;4.05;;;1.52;;
52942;SDS011;38809;53.300;6.614;2024-02-23T04:21:09;6.35;;;2.03;;
52942;SDS011;38809;53.300;6.614;2024-02-23T04:23:35;7.57;;;1.55;;
52942;SDS011;38809;53.300;6.614;2024-02-23T04:26:02;5.43;;;1.77;;
52942;SDS011;38809;53.300;6.614;2024-02-23T04:28:28;9.15;;;1.50;;
52942;SDS011;38809;53.300;6.614;2024-02-23T04:30:56;6.57;;;1.83;;
52942;SDS011;38809;53.300;6.614;2024-02-23T04:33:22;5.63;;;1.30;;
52942;SDS011;38809;53.300;6.614;2024-02-23T04:35:48;6.78;;;1.67;;
52942;SDS011;38809;53.300;6.614;2024-02-23T04:38:15;6.25;;;1.63;;
52942;SDS011;38809;53.300;6.614;2024-02-23T04:40:41;5.55;;;1.30;;
52942;SDS011;38809;53.300;6.614;2024-02-23T04:43:07;4.35;;;1.30;;
52942;SDS011;38809;53.300;6.614;2024-02-23T04:45:33;6.10;;;1.23;;
52942;SDS011;38809;53.300;6.614;2024-02-23T04:47:59;4.13;;;1.20;;
52942;SDS011;38809;53.300;6.614;2024-02-23T04:50:25;5.93;;;1.38;;
52942;SDS011;38809;53.300;6.614;2024-02-23T04:52:51;7.60;;;1.40;;
52942;SDS011;38809;53.300;6.614;2024-02-23T04:55:17;6.20;;;1.52;;
52942;SDS011;38809;53.300;6.614;2024-02-23T04:57:43;8.77;;;1.88;;
52942;SDS011;38809;53.300;6.614;2024-02-23T05:00:10;6.00;;;1.30;;
52942;SDS011;38809;53.300;6.614;2024-02-23T05:02:36;6.80;;;1.40;;
52942;SDS011;38809;53.300;6.614;2024-02-23T05:05:03;4.38;;;1.30;;
52942;SDS011;38809;53.300;6.614;2024-02-23T05:07:33;5.82;;;1.92;;
52942;SDS011;38809;53.300;6.614;2024-02-23T05:09:59;5.75;;;1.50;;
52942;SDS011;38809;53.300;6.614;2024-02-23T05:12:25;5.30;;;1.33;;
52942;SDS011;38809;53.300;6.614;2024-02-23T05:14:51;5.82;;;1.20;;
52942;SDS011;38809;53.300;6.614;2024-02-23T05:17:17;5.82;;;1.58;;
52942;SDS011;38809;53.300;6.614;2024-02-23T05:19:44;6.68;;;1.65;;
52942;SDS011;38809;53.300;6.614;2024-02-23T05:22:11;7.40;;;2.10;;
52942;SDS011;38809;53.300;6.614;2024-02-23T05:24:37;4.78;;;1.23;;
52942;SDS011;38809;53.300;6.614;2024-02-23T05:27:04;7.63;;;1.48;;
52942;SDS011;38809;53.300;6.614;2024-02-23T05:29:30;5.30;;;1.75;;
52942;SDS011;38809;53.300;6.614;2024-02-23T05:31:56;7.80;;;1.27;;
52942;SDS011;38809;53.300;6.614;2024-02-23T05:34:23;4.90;;;1.55;;
52942;SDS011;38809;53.300;6.614;2024-02-23T05:36:49;6.72;;;1.70;;
52942;SDS011;38809;53.300;6.614;2024-02-23T05:39:16;5.13;;;1.38;;
52942;SDS011;38809;53.300;6.614;2024-02-23T05:41:43;6.35;;;1.80;;
52942;SDS011;38809;53.300;6.614;2024-02-23T05:44:09;8.20;;;1.30;;
52942;SDS011;38809;53.300;6.614;2024-02-23T05:46:36;4.85;;;1.48;;
52942;SDS011;38809;53.300;6.614;2024-02-23T05:49:02;5.88;;;1.35;;
52942;SDS011;38809;53.300;6.614;2024-02-23T05:51:32;5.97;;;1.50;;
52942;SDS011;38809;53.300;6.614;2024-02-23T05:54:00;4.40;;;1.40;;
52942;SDS011;38809;53.300;6.614;2024-02-23T05:56:26;6.82;;;1.55;;
52942;SDS011;38809;53.300;6.614;2024-02-23T05:58:52;8.25;;;1.40;;
52942;SDS011;38809;53.300;6.614;2024-02-23T06:03:45;8.50;;;1.58;;
52942;SDS011;38809;53.300;6.614;2024-02-23T06:08:37;4.20;;;1.60;;
52942;SDS011;38809;53.300;6.614;2024-02-23T06:11:03;5.55;;;1.48;;
52942;SDS011;38809;53.300;6.614;2024-02-23T06:13:30;4.53;;;2.17;;
52942;SDS011;38809;53.300;6.614;2024-02-23T06:15:56;8.98;;;1.80;;
52942;SDS011;38809;53.300;6.614;2024-02-23T06:18:22;7.28;;;2.17;;
52942;SDS011;38809;53.300;6.614;2024-02-23T06:20:49;5.32;;;1.73;;
52942;SDS011;38809;53.300;6.614;2024-02-23T06:23:16;4.82;;;2.30;;
52942;SDS011;38809;53.300;6.614;2024-02-23T06:25:42;4.38;;;2.42;;
52942;SDS011;38809;53.300;6.614;2024-02-23T06:28:11;5.70;;;2.58;;
52942;SDS011;38809;53.300;6.614;2024-02-23T06:30:37;8.80;;;3.33;;
52942;SDS011;38809;53.300;6.614;2024-02-23T06:33:04;7.50;;;3.83;;
52942;SDS011;38809;53.300;6.614;2024-02-23T06:35:30;7.18;;;3.90;;
52942;SDS011;38809;53.300;6.614;2024-02-23T06:37:57;6.97;;;3.47;;
52942;SDS011;38809;53.300;6.614;2024-02-23T06:40:23;8.15;;;3.88;;
52942;SDS011;38809;53.300;6.614;2024-02-23T06:42:50;7.78;;;4.00;;
52942;SDS011;38809;53.300;6.614;2024-02-23T06:45:16;9.13;;;4.40;;
52942;SDS011;38809;53.300;6.614;2024-02-23T06:47:44;7.30;;;4.25;;
52942;SDS011;38809;53.300;6.614;2024-02-23T06:50:10;6.72;;;4.00;;
52942;SDS011;38809;53.300;6.614;2024-02-23T06:52:36;6.82;;;3.90;;
52942;SDS011;38809;53.300;6.614;2024-02-23T06:55:02;9.45;;;3.90;;
52942;SDS011;38809;53.300;6.614;2024-02-23T06:57:28;9.25;;;3.95;;
52942;SDS011;38809;53.300;6.614;2024-02-23T06:59:56;8.20;;;4.10;;
52942;SDS011;38809;53.300;6.614;2024-02-23T07:02:22;8.77;;;4.60;;
52942;SDS011;38809;53.300;6.614;2024-02-23T07:04:48;10.23;;;5.20;;
52942;SDS011;38809;53.300;6.614;2024-02-23T07:07:14;8.32;;;4.25;;
52942;SDS011;38809;53.300;6.614;2024-02-23T07:09:40;9.55;;;4.35;;
52942;SDS011;38809;53.300;6.614;2024-02-23T07:12:06;9.68;;;4.45;;
52942;SDS011;38809;53.300;6.614;2024-02-23T07:14:32;7.10;;;4.80;;
52942;SDS011;38809;53.300;6.614;2024-02-23T07:16:58;8.13;;;4.70;;
52942;SDS011;38809;53.300;6.614;2024-02-23T07:19:25;8.48;;;4.78;;
52942;SDS011;38809;53.300;6.614;2024-02-23T07:21:51;11.45;;;5.63;;
52942;SDS011;38809;53.300;6.614;2024-02-23T07:24:17;16.48;;;5.53;;
52942;SDS011;38809;53.300;6.614;2024-02-23T07:26:43;12.10;;;5.40;;
52942;SDS011;38809;53.300;6.614;2024-02-23T07:29:09;9.70;;;4.90;;
52942;SDS011;38809;53.300;6.614;2024-02-23T07:31:35;9.02;;;5.32;;
52942;SDS011;38809;53.300;6.614;2024-02-23T07:34:01;8.13;;;5.50;;
52942;SDS011;38809;53.300;6.614;2024-02-23T07:36:27;7.32;;;4.80;;
52942;SDS011;38809;53.300;6.614;2024-02-23T07:38:53;10.68;;;5.75;;
52942;SDS011;38809;53.300;6.614;2024-02-23T07:41:20;8.68;;;5.43;;
52942;SDS011;38809;53.300;6.614;2024-02-23T07:43:46;10.18;;;4.93;;
52942;SDS011;38809;53.300;6.614;2024-02-23T07:46:12;9.90;;;4.85;;
52942;SDS011;38809;53.300;6.614;2024-02-23T07:48:38;8.20;;;5.22;;
52942;SDS011;38809;53.300;6.614;2024-02-23T07:51:05;8.63;;;4.40;;
52942;SDS011;38809;53.300;6.614;2024-02-23T07:53:31;6.38;;;4.18;;
52942;SDS011;38809;53.300;6.614;2024-02-23T07:55:58;8.90;;;4.20;;
52942;SDS011;38809;53.300;6.614;2024-02-23T07:58:25;6.82;;;4.40;;
52942;SDS011;38809;53.300;6.614;2024-02-23T08:00:54;8.15;;;4.38;;
52942;SDS011;38809;53.300;6.614;2024-02-23T08:03:20;10.82;;;4.80;;
52942;SDS011;38809;53.300;6.614;2024-02-23T08:05:46;6.50;;;4.15;;
52942;SDS011;38809;53.300;6.614;2024-02-23T08:08:12;6.25;;;3.67;;
52942;SDS011;38809;53.300;6.614;2024-02-23T08:10:38;6.07;;;3.83;;
52942;SDS011;38809;53.300;6.614;2024-02-23T08:13:04;8.55;;;4.05;;
52942;SDS011;38809;53.300;6.614;2024-02-23T08:15:31;8.30;;;3.85;;
52942;SDS011;38809;53.300;6.614;2024-02-23T08:17:57;6.20;;;3.75;;
52942;SDS011;38809;53.300;6.614;2024-02-23T08:20:23;6.03;;;3.70;;
52942;SDS011;38809;53.300;6.614;2024-02-23T08:22:49;5.70;;;3.72;;
52942;SDS011;38809;53.300;6.614;2024-02-23T08:25:15;6.68;;;3.80;;
52942;SDS011;38809;53.300;6.614;2024-02-23T08:27:41;5.85;;;3.47;;
52942;SDS011;38809;53.300;6.614;2024-02-23T08:30:08;7.25;;;3.67;;
52942;SDS011;38809;53.300;6.614;2024-02-23T08:32:36;5.18;;;3.15;;
52942;SDS011;38809;53.300;6.614;2024-02-23T08:35:02;7.75;;;3.58;;
52942;SDS011;38809;53.300;6.614;2024-02-23T08:37:28;5.70;;;2.97;;
52942;SDS011;38809;53.300;6.614;2024-02-23T08:39:54;5.05;;;3.15;;
52942;SDS011;38809;53.300;6.614;2024-02-23T08:42:21;4.50;;;2.90;;
52942;SDS011;38809;53.300;6.614;2024-02-23T08:44:47;7.43;;;3.45;;
52942;SDS011;38809;53.300;6.614;2024-02-23T08:47:14;6.88;;;2.72;;
52942;SDS011;38809;53.300;6.614;2024-02-23T08:49:40;4.70;;;2.95;;
52942;SDS011;38809;53.300;6.614;2024-02-23T08:52:06;3.85;;;2.47;;
52942;SDS011;38809;53.300;6.614;2024-02-23T08:54:32;3.55;;;2.10;;
52942;SDS011;38809;53.300;6.614;2024-02-23T08:56:58;6.70;;;2.50;;
52942;SDS011;38809;53.300;6.614;2024-02-23T08:59:24;5.13;;;2.40;;
52942;SDS011;38809;53.300;6.614;2024-02-23T09:01:50;6.43;;;2.55;;
52942;SDS011;38809;53.300;6.614;2024-02-23T09:04:16;5.20;;;2.15;;
52942;SDS011;38809;53.300;6.614;2024-02-23T09:06:42;4.57;;;2.20;;
52942;SDS011;38809;53.300;6.614;2024-02-23T09:09:08;2.83;;;1.65;;
52942;SDS011;38809;53.300;6.614;2024-02-23T09:14:02;5.78;;;1.88;;
52942;SDS011;38809;53.300;6.614;2024-02-23T09:16:28;4.70;;;1.75;;
52942;SDS011;38809;53.300;6.614;2024-02-23T09:18:54;3.45;;;1.58;;
52942;SDS011;38809;53.300;6.614;2024-02-23T09:21:20;5.32;;;1.92;;
52942;SDS011;38809;53.300;6.614;2024-02-23T09:23:46;3.78;;;1.60;;
52942;SDS011;38809;53.300;6.614;2024-02-23T09:26:12;2.63;;;1.40;;
52942;SDS011;38809;53.300;6.614;2024-02-23T09:28:38;5.82;;;2.45;;
52942;SDS011;38809;53.300;6.614;2024-02-23T09:31:08;5.10;;;1.55;;
52942;SDS011;38809;53.300;6.614;2024-02-23T09:33:34;3.88;;;1.55;;
52942;SDS011;38809;53.300;6.614;2024-02-23T09:36:00;3.33;;;1.73;;
52942;SDS011;38809;53.300;6.614;2024-02-23T09:38:26;4.45;;;1.50;;
52942;SDS011;38809;53.300;6.614;2024-02-23T09:43:21;2.28;;;1.30;;
52942;SDS011;38809;53.300;6.614;2024-02-23T09:45:50;9.27;;;2.08;;
52942;SDS011;38809;53.300;6.614;2024-02-23T09:48:17;4.72;;;1.40;;
52942;SDS011;38809;53.300;6.614;2024-02-23T09:50:44;3.25;;;1.42;;
52942;SDS011;38809;53.300;6.614;2024-02-23T09:53:11;3.53;;;1.70;;
52942;SDS011;38809;53.300;6.614;2024-02-23T09:55:38;6.00;;;1.70;;
52942;SDS011;38809;53.300;6.614;2024-02-23T09:58:04;4.38;;;1.70;;
52942;SDS011;38809;53.300;6.614;2024-02-23T10:00:32;2.30;;;1.30;;
52942;SDS011;38809;53.300;6.614;2024-02-23T10:03:00;4.00;;;1.48;;
52942;SDS011;38809;53.300;6.614;2024-02-23T10:05:29;6.93;;;1.70;;
52942;SDS011;38809;53.300;6.614;2024-02-23T10:07:56;5.25;;;1.65;;
52942;SDS011;38809;53.300;6.614;2024-02-23T10:12:50;4.18;;;1.27;;
52942;SDS011;38809;53.300;6.614;2024-02-23T10:15:17;3.92;;;1.10;;
52942;SDS011;38809;53.300;6.614;2024-02-23T10:17:44;4.30;;;1.20;;
52942;SDS011;38809;53.300;6.614;2024-02-23T10:20:10;5.50;;;2.70;;
52942;SDS011;38809;53.300;6.614;2024-02-23T10:22:36;2.70;;;1.08;;
52942;SDS011;38809;53.300;6.614;2024-02-23T10:25:02;6.22;;;1.70;;
52942;SDS011;38809;53.300;6.614;2024-02-23T10:27:29;2.83;;;1.08;;
52942;SDS011;38809;53.300;6.614;2024-02-23T10:29:55;4.00;;;1.10;;
52942;SDS011;38809;53.300;6.614;2024-02-23T10:32:22;4.15;;;1.33;;
52942;SDS011;38809;53.300;6.614;2024-02-23T10:34:49;3.08;;;1.10;;
52942;SDS011;38809;53.300;6.614;2024-02-23T10:37:16;2.97;;;1.10;;
52942;SDS011;38809;53.300;6.614;2024-02-23T10:39:42;4.63;;;1.13;;
52942;SDS011;38809;53.300;6.614;2024-02-23T10:42:11;4.28;;;1.00;;
52942;SDS011;38809;53.300;6.614;2024-02-23T10:44:38;2.70;;;0.80;;
52942;SDS011;38809;53.300;6.614;2024-02-23T10:47:05;3.88;;;1.10;;
52942;SDS011;38809;53.300;6.614;2024-02-23T10:49:32;2.40;;;0.80;;
52942;SDS011;38809;53.300;6.614;2024-02-23T10:54:25;4.30;;;0.90;;
52942;SDS011;38809;53.300;6.614;2024-02-23T10:56:52;3.30;;;0.93;;
52942;SDS011;38809;53.300;6.614;2024-02-23T10:59:20;3.30;;;0.80;;
52942;SDS011;38809;53.300;6.614;2024-02-23T11:01:53;3.60;;;1.10;;
52942;SDS011;38809;53.300;6.614;2024-02-23T11:04:22;3.35;;;1.00;;
52942;SDS011;38809;53.300;6.614;2024-02-23T11:06:50;7.18;;;1.33;;
52942;SDS011;38809;53.300;6.614;2024-02-23T11:09:16;5.15;;;1.02;;
52942;SDS011;38809;53.300;6.614;2024-02-23T11:11:56;4.10;;;1.30;;
52942;SDS011;38809;53.300;6.614;2024-02-23T11:14:31;4.10;;;0.90;;
52942;SDS011;38809;53.300;6.614;2024-02-23T11:16:58;6.18;;;1.10;;
52942;SDS011;38809;53.300;6.614;2024-02-23T11:19:32;3.92;;;1.30;;
52942;SDS011;38809;53.300;6.614;2024-02-23T11:21:59;1.95;;;0.75;;
52942;SDS011;38809;53.300;6.614;2024-02-23T11:24:25;3.65;;;1.05;;
52942;SDS011;38809;53.300;6.614;2024-02-23T11:26:57;3.35;;;0.80;;
52942;SDS011;38809;53.300;6.614;2024-02-23T11:29:27;4.13;;;1.08;;
52942;SDS011;38809;53.300;6.614;2024-02-23T11:31:53;3.42;;;0.80;;
52942;SDS011;38809;53.300;6.614;2024-02-23T11:34:26;2.53;;;0.70;;
52942;SDS011;38809;53.300;6.614;2024-02-23T11:36:52;3.47;;;1.00;;
52942;SDS011;38809;53.300;6.614;2024-02-23T11:41:45;3.47;;;0.90;;
52942;SDS011;38809;53.300;6.614;2024-02-23T11:44:14;4.25;;;1.30;;
52942;SDS011;38809;53.300;6.614;2024-02-23T11:46:42;2.22;;;0.90;;
52942;SDS011;38809;53.300;6.614;2024-02-23T11:49:10;2.70;;;0.90;;
52942;SDS011;38809;53.300;6.614;2024-02-23T11:51:36;2.35;;;0.80;;
52942;SDS011;38809;53.300;6.614;2024-02-23T11:54:02;1.88;;;0.80;;
52942;SDS011;38809;53.300;6.614;2024-02-23T11:56:29;5.32;;;1.00;;
52942;SDS011;38809;53.300;6.614;2024-02-23T11:58:55;2.88;;;1.10;;
52942;SDS011;38809;53.300;6.614;2024-02-23T12:01:21;5.07;;;1.35;;
52942;SDS011;38809;53.300;6.614;2024-02-23T12:03:47;3.00;;;0.98;;
52942;SDS011;38809;53.300;6.614;2024-02-23T12:06:14;4.05;;;0.93;;
52942;SDS011;38809;53.300;6.614;2024-02-23T12:08:41;4.38;;;1.27;;
52942;SDS011;38809;53.300;6.614;2024-02-23T12:11:11;5.50;;;1.42;;
52942;SDS011;38809;53.300;6.614;2024-02-23T12:13:39;3.53;;;1.20;;
52942;SDS011;38809;53.300;6.614;2024-02-23T12:16:06;4.05;;;1.00;;
52942;SDS011;38809;53.300;6.614;2024-02-23T12:18:33;2.80;;;1.13;;
52942;SDS011;38809;53.300;6.614;2024-02-23T12:23:27;3.90;;;1.17;;
52942;SDS011;38809;53.300;6.614;2024-02-23T12:25:56;2.53;;;0.82;;
52942;SDS011;38809;53.300;6.614;2024-02-23T12:28:24;3.42;;;1.10;;
52942;SDS011;38809;53.300;6.614;2024-02-23T12:31:03;3.25;;;0.90;;
52942;SDS011;38809;53.300;6.614;2024-02-23T12:33:33;4.10;;;1.30;;
52942;SDS011;38809;53.300;6.614;2024-02-23T12:36:00;5.05;;;1.13;;
52942;SDS011;38809;53.300;6.614;2024-02-23T12:40:52;8.27;;;1.50;;
52942;SDS011;38809;53.300;6.614;2024-02-23T12:43:18;6.05;;;1.02;;
52942;SDS011;38809;53.300;6.614;2024-02-23T12:45:53;2.28;;;0.90;;
52942;SDS011;38809;53.300;6.614;2024-02-23T12:48:20;3.22;;;1.05;;
52942;SDS011;38809;53.300;6.614;2024-02-23T12:50:46;3.75;;;1.02;;
52942;SDS011;38809;53.300;6.614;2024-02-23T12:55:39;2.58;;;1.05;;
52942;SDS011;38809;53.300;6.614;2024-02-23T12:58:06;4.00;;;1.17;;
52942;SDS011;38809;53.300;6.614;2024-02-23T13:00:32;3.75;;;1.02;;
52942;SDS011;38809;53.300;6.614;2024-02-23T13:02:58;2.83;;;1.05;;
52942;SDS011;38809;53.300;6.614;2024-02-23T13:05:24;3.97;;;1.00;;
52942;SDS011;38809;53.300;6.614;2024-02-23T13:07:50;3.30;;;0.90;;
52942;SDS011;38809;53.300;6.614;2024-02-23T13:10:16;4.93;;;1.52;;
52942;SDS011;38809;53.300;6.614;2024-02-23T13:12:43;5.05;;;1.30;;
52942;SDS011;38809;53.300;6.614;2024-02-23T13:15:09;4.88;;;1.08;;
52942;SDS011;38809;53.300;6.614;2024-02-23T13:17:35;3.40;;;1.17;;
52942;SDS011;38809;53.300;6.614;2024-02-23T13:20:01;4.45;;;1.00;;
52942;SDS011;38809;53.300;6.614;2024-02-23T13:22:28;2.47;;;0.95;;
52942;SDS011;38809;53.300;6.614;2024-02-23T13:24:54;2.30;;;1.05;;
52942;SDS011;38809;53.300;6.614;2024-02-23T13:27:20;2.90;;;1.00;;
52942;SDS011;38809;53.300;6.614;2024-02-23T13:29:46;3.80;;;1.08;;
52942;SDS011;38809;53.300;6.614;2024-02-23T13:32:12;2.50;;;0.82;;
52942;SDS011;38809;53.300;6.614;2024-02-23T13:34:38;3.17;;;1.20;;
52942;SDS011;38809;53.300;6.614;2024-02-23T13:37:04;3.70;;;1.17;;
52942;SDS011;38809;53.300;6.614;2024-02-23T13:39:30;5.38;;;1.38;;
52942;SDS011;38809;53.300;6.614;2024-02-23T13:44:23;3.67;;;1.30;;
52942;SDS011;38809;53.300;6.614;2024-02-23T13:46:49;3.63;;;1.30;;
52942;SDS011;38809;53.300;6.614;2024-02-23T13:49:15;3.83;;;1.27;;
52942;SDS011;38809;53.300;6.614;2024-02-23T13:51:41;2.50;;;1.10;;
52942;SDS011;38809;53.300;6.614;2024-02-23T13:54:07;4.75;;;1.23;;
52942;SDS011;38809;53.300;6.614;2024-02-23T13:56:33;3.67;;;1.20;;
52942;SDS011;38809;53.300;6.614;2024-02-23T13:59:00;2.70;;;1.20;;
52942;SDS011;38809;53.300;6.614;2024-02-23T14:01:26;4.28;;;1.05;;
52942;SDS011;38809;53.300;6.614;2024-02-23T14:03:52;2.88;;;1.20;;
52942;SDS011;38809;53.300;6.614;2024-02-23T14:06:18;4.57;;;1.20;;
52942;SDS011;38809;53.300;6.614;2024-02-23T14:08:44;3.13;;;1.10;;
52942;SDS011;38809;53.300;6.614;2024-02-23T14:11:12;4.30;;;1.80;;
52942;SDS011;38809;53.300;6.614;2024-02-23T14:16:05;3.38;;;1.52;;
52942;SDS011;38809;53.300;6.614;2024-02-23T14:18:31;4.78;;;1.23;;
52942;SDS011;38809;53.300;6.614;2024-02-23T14:21:02;5.20;;;1.40;;
52942;SDS011;38809;53.300;6.614;2024-02-23T14:23:28;3.17;;;1.30;;
52942;SDS011;38809;53.300;6.614;2024-02-23T14:25:54;5.00;;;1.50;;
52942;SDS011;38809;53.300;6.614;2024-02-23T14:28:20;2.53;;;1.33;;
52942;SDS011;38809;53.300;6.614;2024-02-23T14:30:47;4.93;;;1.80;;
52942;SDS011;38809;53.300;6.614;2024-02-23T14:33:13;3.88;;;0.95;;
52942;SDS011;38809;53.300;6.614;2024-02-23T14:35:39;2.42;;;0.80;;
52942;SDS011;38809;53.300;6.614;2024-02-23T14:38:05;3.58;;;0.88;;
52942;SDS011;38809;53.300;6.614;2024-02-23T14:40:31;1.55;;;0.60;;
52942;SDS011;38809;53.300;6.614;2024-02-23T14:42:57;1.65;;;0.65;;
52942;SDS011;38809;53.300;6.614;2024-02-23T14:47:52;3.53;;;1.00;;
52942;SDS011;38809;53.300;6.614;2024-02-23T14:50:19;1.77;;;0.73;;
52942;SDS011;38809;53.300;6.614;2024-02-23T14:52:45;1.98;;;0.88;;
52942;SDS011;38809;53.300;6.614;2024-02-23T14:55:11;3.72;;;1.10;;
52942;SDS011;38809;53.300;6.614;2024-02-23T14:57:38;4.05;;;1.40;;
52942;SDS011;38809;53.300;6.614;2024-02-23T15:00:04;6.32;;;1.85;;
52942;SDS011;38809;53.300;6.614;2024-02-23T15:02:31;4.75;;;1.60;;
52942;SDS011;38809;53.300;6.614;2024-02-23T15:04:57;4.25;;;1.38;;
52942;SDS011;38809;53.300;6.614;2024-02-23T15:07:23;3.92;;;1.27;;
52942;SDS011;38809;53.300;6.614;2024-02-23T15:09:49;2.83;;;1.35;;
52942;SDS011;38809;53.300;6.614;2024-02-23T15:12:15;2.60;;;1.40;;
52942;SDS011;38809;53.300;6.614;2024-02-23T15:14:41;4.18;;;1.85;;
52942;SDS011;38809;53.300;6.614;2024-02-23T15:17:07;3.78;;;1.58;;
52942;SDS011;38809;53.300;6.614;2024-02-23T15:19:34;3.75;;;1.33;;
52942;SDS011;38809;53.300;6.614;2024-02-23T15:22:00;5.32;;;2.10;;
52942;SDS011;38809;53.300;6.614;2024-02-23T15:24:26;4.53;;;1.67;;
52942;SDS011;38809;53.300;6.614;2024-02-23T15:26:52;3.05;;;1.70;;
52942;SDS011;38809;53.300;6.614;2024-02-23T15:29:18;2.83;;;1.60;;
52942;SDS011;38809;53.300;6.614;2024-02-23T15:31:44;4.78;;;1.90;;
52942;SDS011;38809;53.300;6.614;2024-02-23T15:34:11;3.17;;;1.48;;
52942;SDS011;38809;53.300;6.614;2024-02-23T15:36:37;2.97;;;1.30;;